Time;durP1;ratioP1;P1;durP2;ratioP2;P2;SDS_P1;SDS_P2;PMS_P1;PMS_P2;Temp;Humidity;BMP_temperature;BMP_pressure;BME280_temperature;BME280_humidity;BME280_pressure;Samples;Min_cycle;Max_cycle;Signal;HPM_P1;HPM_P2
2023/02/22 00:09:46;;;;;;;16.5;7.5;;;;;;;5.8;77.7;98730;;;;
2023/02/22 00:20:46;;;;;;;16.5;7.5;;;;;;;5.8;77.8;98730;;;;
2023/02/22 00:31:46;;;;;;;16;8.3;;;;;;;5.8;77.8;98740;;;;
2023/02/22 00:41:46;;;;;;;16;8.3;;;;;;;5.9;77.8;98750;;;;
2023/02/22 00:51:46;;;;;;;16;8.3;;;;;;;5.9;78.2;98750;;;;
2023/02/22 01:01:46;;;;;;;18.1;8.5;;;;;;;5.9;78.5;98750;;;;
2023/02/22 01:12:46;;;;;;;18.1;8.5;;;;;;;5.9;78.9;98750;;;;
2023/02/22 01:22:46;;;;;;;18.1;8.5;;;;;;;5.8;79;98760;;;;
2023/02/22 01:33:46;;;;;;;24.8;11.1;;;;;;;5.8;78.9;98750;;;;
2023/02/22 01:43:46;;;;;;;24.8;11.1;;;;;;;5.8;79.1;98750;;;;
2023/02/22 01:53:46;;;;;;;20.1;11.2;;;;;;;5.8;79.2;98750;;;;
2023/02/22 02:04:46;;;;;;;20.1;11.2;;;;;;;5.8;79.3;98750;;;;
2023/02/22 02:14:46;;;;;;;20.1;11.2;;;;;;;5.8;79.3;98750;;;;
2023/02/22 02:25:46;;;;;;;19.8;10.7;;;;;;;5.7;79.4;98740;;;;
2023/02/22 02:36:46;;;;;;;19.8;10.7;;;;;;;5.7;79.1;98750;;;;
2023/02/22 02:46:46;;;;;;;19.8;10.7;;;;;;;5.7;79.1;98760;;;;
2023/02/22 02:57:46;;;;;;;17.8;11;;;;;;;5.7;78.9;98750;;;;
2023/02/22 03:07:46;;;;;;;17.8;11;;;;;;;5.7;79;98760;;;;
2023/02/22 03:18:46;;;;;;;17.8;11;;;;;;;5.7;79;98770;;;;
2023/02/22 03:28:46;;;;;;;24.9;11.6;;;;;;;5.8;78.9;98770;;;;
2023/02/22 03:38:46;;;;;;;24.9;11.6;;;;;;;5.7;78.8;98770;;;;
2023/02/22 03:49:46;;;;;;;24.9;11.6;;;;;;;5.7;79.4;98780;;;;
2023/02/22 03:59:46;;;;;;;23.2;11.3;;;;;;;5.7;79.6;98780;;;;
2023/02/22 04:10:46;;;;;;;23.2;11.3;;;;;;;5.7;79.8;98780;;;;
2023/02/22 04:21:46;;;;;;;23.2;11.3;;;;;;;5.7;79.7;98780;;;;
2023/02/22 04:32:46;;;;;;;22.3;10.8;;;;;;;5.6;79.6;98780;;;;
2023/02/22 04:43:46;;;;;;;22.3;10.8;;;;;;;5.5;79.6;98790;;;;
2023/02/22 04:54:46;;;;;;;19.1;11.1;;;;;;;5.4;79.7;98790;;;;
2023/02/22 05:04:46;;;;;;;19.1;11.1;;;;;;;5.4;80;98790;;;;
2023/02/22 05:14:46;;;;;;;19.1;11.1;;;;;;;5.5;80.2;98780;;;;
2023/02/22 05:25:46;;;;;;;18.6;10.3;;;;;;;5.5;80.1;98790;;;;
2023/02/22 05:35:46;;;;;;;18.6;10.3;;;;;;;5.5;80;98800;;;;
2023/02/22 05:45:46;;;;;;;18.6;10.3;;;;;;;5.5;80.1;98800;;;;
2023/02/22 05:55:46;;;;;;;18.9;11.1;;;;;;;5.6;80.2;98820;;;;
2023/02/22 06:06:46;;;;;;;18.9;11.1;;;;;;;5.7;80.1;98830;;;;
2023/02/22 06:16:46;;;;;;;18.9;11.1;;;;;;;5.7;80.2;98840;;;;
2023/02/22 06:27:46;;;;;;;17.7;10.8;;;;;;;5.8;79.9;98850;;;;
2023/02/22 06:37:46;;;;;;;17.7;10.8;;;;;;;5.7;80.1;98860;;;;
2023/02/22 06:47:46;;;;;;;17.7;10.8;;;;;;;5.8;80.4;98870;;;;
2023/02/22 06:57:46;;;;;;;25.3;16;;;;;;;5.9;80.5;98870;;;;
2023/02/22 07:07:46;;;;;;;25.3;16;;;;;;;6.1;80.4;98880;;;;
2023/02/22 07:17:46;;;;;;;25.3;16;;;;;;;6.3;80.4;98880;;;;
2023/02/22 07:28:46;;;;;;;30.9;17.3;;;;;;;6.4;79.4;98890;;;;
2023/02/22 07:38:46;;;;;;;30.9;17.3;;;;;;;6.4;78.6;98890;;;;
2023/02/22 07:49:46;;;;;;;30.9;17.3;;;;;;;6.5;78.4;98890;;;;
2023/02/22 07:59:47;;;;;;;28.8;18.8;;;;;;;6.8;77.8;98890;;;;
2023/02/22 08:09:46;;;;;;;28.8;18.8;;;;;;;6.9;76.7;98890;;;;
2023/02/22 08:20:46;;;;;;;28.8;18.8;;;;;;;7.2;76.2;98890;;;;
2023/02/22 08:31:46;;;;;;;33.4;22.4;;;;;;;7.4;75.5;98890;;;;
2023/02/22 08:41:46;;;;;;;33.4;22.4;;;;;;;7.6;74.8;98900;;;;
2023/02/22 08:51:46;;;;;;;33.4;22.4;;;;;;;7.8;73.9;98900;;;;
2023/02/22 09:02:46;;;;;;;30.4;20.3;;;;;;;8.2;72.9;98900;;;;
2023/02/22 09:12:46;;;;;;;30.4;20.3;;;;;;;8.5;70.9;98900;;;;
2023/02/22 09:22:46;;;;;;;35.6;18.4;;;;;;;8.9;68.4;98900;;;;
2023/02/22 09:32:46;;;;;;;35.6;18.4;;;;;;;8.7;66;98900;;;;
2023/02/22 09:42:46;;;;;;;35.6;18.4;;;;;;;8.9;67;98900;;;;
2023/02/22 09:52:46;;;;;;;19;13.4;;;;;;;9.2;64.7;98900;;;;
2023/02/22 10:03:46;;;;;;;19;13.4;;;;;;;9.3;60.8;98890;;;;
2023/02/22 10:13:47;;;;;;;19;13.4;;;;;;;9.5;61.2;98890;;;;
2023/02/22 10:24:46;;;;;;;14.9;6.9;;;;;;;9.4;60;98870;;;;
2023/02/22 10:35:46;;;;;;;14.9;6.9;;;;;;;9.8;59.2;98870;;;;
2023/02/22 10:45:46;;;;;;;14.9;6.9;;;;;;;9.8;57.6;98870;;;;
2023/02/22 10:56:46;;;;;;;8;4.5;;;;;;;9.9;57.7;98860;;;;
2023/02/22 11:06:47;;;;;;;8;4.5;;;;;;;9.9;55.9;98860;;;;
2023/02/22 11:17:46;;;;;;;8;4.5;;;;;;;9.8;56.2;98850;;;;
2023/02/22 11:27:46;;;;;;;16.1;6.5;;;;;;;10.2;56.5;98850;;;;
2023/02/22 11:38:47;;;;;;;16.1;6.5;;;;;;;9.8;56.2;98850;;;;
2023/02/22 11:48:47;;;;;;;16.1;6.5;;;;;;;9.4;57.3;98850;;;;
2023/02/22 11:58:46;;;;;;;10.4;5.2;;;;;;;9.6;56.8;98840;;;;
2023/02/22 12:08:46;;;;;;;10.4;5.2;;;;;;;9.6;56.1;98830;;;;
2023/02/22 12:19:46;;;;;;;10.4;5.2;;;;;;;9.7;55.8;98830;;;;
2023/02/22 12:29:46;;;;;;;14.9;6.6;;;;;;;9.7;55.9;98820;;;;
2023/02/22 12:39:49;;;;;;;14.9;6.6;;;;;;;9.4;56.6;98820;;;;
2023/02/22 12:50:47;;;;;;;14.9;6.6;;;;;;;9.7;55.8;98820;;;;
2023/02/22 13:01:46;;;;;;;11.3;5.6;;;;;;;9.3;56;98820;;;;
2023/02/22 13:11:46;;;;;;;11.3;5.6;;;;;;;9.2;56.5;98820;;;;
2023/02/22 13:21:46;;;;;;;11.4;6;;;;;;;9.3;56.6;98810;;;;
2023/02/22 13:31:46;;;;;;;11.4;6;;;;;;;9.2;56.6;98820;;;;
2023/02/22 13:41:47;;;;;;;11.4;6;;;;;;;9.3;57;98820;;;;
2023/02/22 13:51:46;;;;;;;17.5;6.8;;;;;;;9.3;56.9;98820;;;;
2023/02/22 14:02:46;;;;;;;17.5;6.8;;;;;;;9;56.7;98830;;;;
2023/02/22 14:13:46;;;;;;;17.5;6.8;;;;;;;8.8;57.3;98820;;;;
2023/02/22 14:23:46;;;;;;;13.4;7.3;;;;;;;8.7;57.5;98820;;;;
2023/02/22 14:34:48;;;;;;;13.4;7.3;;;;;;;8.5;57.7;98820;;;;
2023/02/22 14:44:47;;;;;;;13.4;7.3;;;;;;;8.4;58.2;98830;;;;
2023/02/22 14:55:46;;;;;;;19.6;7.9;;;;;;;8.2;58.7;98830;;;;
2023/02/22 15:05:48;;;;;;;19.6;7.9;;;;;;;8.1;58.7;98830;;;;
2023/02/22 15:16:46;;;;;;;19.6;7.9;;;;;;;7.9;59.7;98830;;;;
2023/02/22 15:26:47;;;;;;;13.7;8.2;;;;;;;7.9;59.7;98830;;;;
2023/02/22 15:36:46;;;;;;;13.7;8.2;;;;;;;7.8;59.9;98840;;;;
2023/02/22 15:46:46;;;;;;;13.7;8.2;;;;;;;7.6;60.2;98840;;;;
2023/02/22 15:57:46;;;;;;;32.6;20.9;;;;;;;7.4;60.4;98840;;;;
2023/02/22 16:07:46;;;;;;;32.6;20.9;;;;;;;7.2;61.3;98850;;;;
2023/02/22 16:18:46;;;;;;;32.6;20.9;;;;;;;7;61.9;98850;;;;
2023/02/22 16:29:46;;;;;;;38.2;25.5;;;;;;;6.7;62.8;98870;;;;
2023/02/22 16:39:50;;;;;;;38.2;25.5;;;;;;;6.5;63.7;98870;;;;
2023/02/22 16:49:46;;;;;;;38.2;25.5;;;;;;;6.3;64.3;98870;;;;
2023/02/22 16:59:49;;;;;;;17.9;11.4;;;;;;;6;64.5;98880;;;;
2023/02/22 17:10:50;;;;;;;17.9;11.4;;;;;;;5.8;66.2;98890;;;;
2023/02/22 17:20:46;;;;;;;17.9;11.4;;;;;;;5.5;66.2;98880;;;;
2023/02/22 17:31:47;;;;;;;24.8;11.1;;;;;;;5.2;67.5;98880;;;;
2023/02/22 17:41:53;;;;;;;24.8;11.1;;;;;;;4.9;68.5;98880;;;;
2023/02/22 17:52:46;;;;;;;31.8;15.9;;;;;;;4.8;69.1;98880;;;;
2023/02/22 18:03:46;;;;;;;31.8;15.9;;;;;;;4.7;69.6;98880;;;;
2023/02/22 18:13:46;;;;;;;31.8;15.9;;;;;;;4.6;70.4;98880;;;;
2023/02/22 18:24:46;;;;;;;24.2;13.4;;;;;;;4.5;70.3;98880;;;;
2023/02/22 18:35:48;;;;;;;24.2;13.4;;;;;;;4.4;71.1;98870;;;;
2023/02/22 18:45:46;;;;;;;24.2;13.4;;;;;;;4.2;71.5;98870;;;;
2023/02/22 18:56:46;;;;;;;27.3;15.6;;;;;;;3.9;71.8;98870;;;;
2023/02/22 19:06:47;;;;;;;27.3;15.6;;;;;;;3.6;72.2;98870;;;;
2023/02/22 19:16:47;;;;;;;27.3;15.6;;;;;;;3.4;72.9;98870;;;;
2023/02/22 19:27:46;;;;;;;33.6;20.6;;;;;;;3.2;73.6;98870;;;;
2023/02/22 19:37:46;;;;;;;33.6;20.6;;;;;;;3.1;74;98880;;;;
2023/02/22 19:48:46;;;;;;;33.6;20.6;;;;;;;2.8;74.2;98890;;;;
2023/02/22 19:58:47;;;;;;;40.4;21.9;;;;;;;2.6;74.3;98890;;;;
2023/02/22 20:09:48;;;;;;;40.4;21.9;;;;;;;2.5;75.2;98900;;;;
2023/02/22 20:20:46;;;;;;;40.4;21.9;;;;;;;2.4;75.8;98890;;;;
2023/02/22 20:30:47;;;;;;;43.2;21;;;;;;;2.2;75.6;98890;;;;
2023/02/22 20:41:46;;;;;;;43.2;21;;;;;;;2.1;76.3;98890;;;;
2023/02/22 20:52:46;;;;;;;37.9;19.4;;;;;;;2;76.7;98890;;;;
2023/02/22 21:03:46;;;;;;;37.9;19.4;;;;;;;1.8;76.8;98890;;;;
2023/02/22 21:13:46;;;;;;;37.9;19.4;;;;;;;1.5;79.8;98900;;;;
2023/02/22 21:23:48;;;;;;;27.7;16;;;;;;;1.5;82.7;98910;;;;
2023/02/22 21:34:46;;;;;;;27.7;16;;;;;;;1.5;83.5;98920;;;;
2023/02/22 21:44:47;;;;;;;27.7;16;;;;;;;1.4;83.5;98910;;;;
2023/02/22 21:55:46;;;;;;;21;12;;;;;;;1.2;83.6;98910;;;;
2023/02/22 22:05:46;;;;;;;21;12;;;;;;;1.1;83.9;98920;;;;
2023/02/22 22:16:46;;;;;;;21;12;;;;;;;1;85;98920;;;;
2023/02/22 22:26:49;;;;;;;18.5;8.6;;;;;;;0.9;85.8;98920;;;;
2023/02/22 22:36:46;;;;;;;18.5;8.6;;;;;;;0.8;86.3;98920;;;;
2023/02/22 22:46:48;;;;;;;18.5;8.6;;;;;;;0.7;86.5;98920;;;;
2023/02/22 22:56:47;;;;;;;13.5;7.7;;;;;;;0.6;86.5;98920;;;;
2023/02/22 23:07:46;;;;;;;13.5;7.7;;;;;;;0.5;86.8;98920;;;;
2023/02/22 23:17:47;;;;;;;13.5;7.7;;;;;;;0.4;86.8;98910;;;;
2023/02/22 23:28:46;;;;;;;14.3;8;;;;;;;0.4;87;98910;;;;
2023/02/22 23:39:46;;;;;;;14.3;8;;;;;;;0.3;86.7;98910;;;;
2023/02/22 23:49:48;;;;;;;14.3;8;;;;;;;0.2;86.6;98910;;;;
